Time;durP1;ratioP1;P1;durP2;ratioP2;P2;SDS_P1;SDS_P2;PMS_P1;PMS_P2;Temp;Humidity;BMP_temperature;BMP_pressure;BME280_temperature;BME280_humidity;BME280_pressure;Samples;Min_cycle;Max_cycle;Signal;HPM_P1;HPM_P2
2024/04/01 00:00:07;;;;;;;34.80;29.77;;;8.60;93.80;;;;;;5032374;28;20232;-84
2024/04/01 00:02:33;;;;;;;35.67;29.20;;;8.50;93.60;;;;;;5033504;28;20193;-84
2024/04/01 00:04:58;;;;;;;38.27;30.47;;;8.50;93.40;;;;;;5033678;28;20177;-84
2024/04/01 00:07:24;;;;;;;36.23;28.47;;;8.40;93.20;;;;;;5033480;28;20177;-84
2024/04/01 00:09:49;;;;;;;40.17;31.13;;;8.20;93.10;;;;;;5032099;28;20181;-84
2024/04/01 00:12:15;;;;;;;40.20;29.93;;;8.10;93.10;;;;;;5031828;28;20191;-84
2024/04/01 00:14:40;;;;;;;35.70;30.27;;;8.10;93.20;;;;;;5031953;28;20187;-83
2024/04/01 00:17:06;;;;;;;41.33;30.73;;;8.10;93.20;;;;;;5032310;28;20187;-83
2024/04/01 00:19:31;;;;;;;37.37;31.07;;;8.10;93.30;;;;;;5032043;28;20207;-83
2024/04/01 00:21:57;;;;;;;39.70;30.57;;;8.00;93.30;;;;;;5033047;28;20173;-84
2024/04/01 00:24:23;;;;;;;37.43;30.97;;;8.00;93.30;;;;;;5032109;28;20212;-83
2024/04/01 00:26:48;;;;;;;36.73;29.87;;;7.90;93.40;;;;;;5032166;28;20184;-84
2024/04/01 00:29:14;;;;;;;35.33;30.50;;;7.80;93.40;;;;;;5033408;28;20172;-84
2024/04/01 00:31:40;;;;;;;45.10;33.97;;;7.80;93.40;;;;;;5034388;28;20724;-85
2024/04/01 00:34:05;;;;;;;52.73;36.23;;;7.90;93.50;;;;;;5033659;28;20271;-84
2024/04/01 00:36:31;;;;;;;46.73;35.37;;;7.90;93.50;;;;;;5033155;28;20545;-84
2024/04/01 00:38:56;;;;;;;51.17;37.53;;;7.90;93.50;;;;;;5031987;28;20196;-85
2024/04/01 00:41:23;;;;;;;51.87;39.13;;;7.90;93.50;;;;;;5032980;28;20169;-85
2024/04/01 00:43:48;;;;;;;60.10;41.73;;;7.70;93.30;;;;;;5031754;28;20630;-84
2024/04/01 00:46:15;;;;;;;62.97;43.03;;;7.60;93.30;;;;;;5033071;28;20192;-85
2024/04/01 00:48:41;;;;;;;48.87;35.87;;;7.50;93.30;;;;;;5036988;28;20180;-84
2024/04/01 00:51:07;;;;;;;46.13;30.73;;;7.50;93.40;;;;;;5036945;28;20173;-84
2024/04/01 00:53:33;;;;;;;37.50;27.03;;;7.60;93.50;;;;;;5036719;28;20699;-84
2024/04/01 00:55:59;;;;;;;31.93;23.67;;;7.50;93.50;;;;;;5036782;28;20307;-85
2024/04/01 00:58:25;;;;;;;27.70;22.57;;;7.60;93.70;;;;;;5037266;28;20193;-85
2024/04/01 01:00:51;;;;;;;28.00;23.10;;;7.60;93.60;;;;;;5035803;28;20173;-84
2024/04/01 01:03:18;;;;;;;33.60;23.87;;;7.70;93.60;;;;;;5036597;28;20189;-84
2024/04/01 01:05:44;;;;;;;27.80;23.63;;;7.80;93.80;;;;;;5036826;28;20215;-84
2024/04/01 01:08:10;;;;;;;30.30;25.33;;;7.80;93.70;;;;;;5035333;28;20636;-84
2024/04/01 01:10:36;;;;;;;32.10;25.23;;;7.80;93.30;;;;;;5036586;28;20657;-84
2024/04/01 01:13:01;;;;;;;30.20;24.60;;;7.70;93.00;;;;;;5036421;28;20246;-84
2024/04/01 01:15:27;;;;;;;30.40;25.50;;;7.60;92.80;;;;;;5035909;28;20173;-84
2024/04/01 01:17:54;;;;;;;35.73;26.10;;;7.50;92.70;;;;;;5035696;28;20180;-84
2024/04/01 01:20:20;;;;;;;32.63;27.57;;;7.50;92.70;;;;;;5036578;28;20533;-84
2024/04/01 01:22:45;;;;;;;35.70;27.43;;;7.50;92.80;;;;;;5036301;28;20204;-83
2024/04/01 01:25:11;;;;;;;33.30;27.03;;;7.60;92.80;;;;;;5036610;28;20165;-84
2024/04/01 01:27:39;;;;;;;35.23;28.00;;;7.50;92.80;;;;;;5037323;28;20656;-84
2024/04/01 01:30:14;;;;;;;33.73;25.70;;;7.50;92.80;;;;;;5037420;28;20195;-83
2024/04/01 01:32:46;;;;;;;38.27;27.53;;;7.50;92.90;;;;;;5036932;28;20676;-86
2024/04/01 01:35:17;;;;;;;37.60;27.47;;;7.40;93.00;;;;;;5035434;28;20172;-84
2024/04/01 01:37:43;;;;;;;38.10;27.33;;;7.40;93.00;;;;;;5036818;28;20244;-84
2024/04/01 01:40:08;;;;;;;38.03;28.40;;;7.40;93.10;;;;;;5036795;28;20242;-84
2024/04/01 01:42:35;;;;;;;37.80;27.47;;;7.40;93.10;;;;;;5036754;28;20744;-84
2024/04/01 01:45:05;;;;;;;36.67;27.30;;;7.40;93.10;;;;;;5035262;28;20200;-84
2024/04/01 01:47:32;;;;;;;41.03;28.17;;;7.40;93.00;;;;;;5036298;28;20179;-85
2024/04/01 01:49:59;;;;;;;35.53;26.13;;;7.30;93.10;;;;;;5036627;28;20173;-83
2024/04/01 01:52:24;;;;;;;35.87;26.73;;;7.30;93.10;;;;;;5035533;28;20215;-84
2024/04/01 01:54:50;;;;;;;38.57;27.83;;;7.30;93.10;;;;;;5036981;28;20169;-85
2024/04/01 01:57:15;;;;;;;37.07;26.87;;;7.30;93.20;;;;;;5037306;28;20657;-84
2024/04/01 01:59:41;;;;;;;33.47;26.50;;;7.30;93.30;;;;;;5036430;28;20208;-84
2024/04/01 02:02:07;;;;;;;32.60;25.37;;;7.30;93.40;;;;;;5035397;28;20272;-85
2024/04/01 02:04:33;;;;;;;36.23;27.83;;;7.40;93.40;;;;;;5035084;28;20201;-86
2024/04/01 02:06:58;;;;;;;34.67;26.37;;;7.50;93.50;;;;;;5037076;28;20175;-84
2024/04/01 02:09:24;;;;;;;37.70;27.60;;;7.50;93.50;;;;;;5035448;28;20180;-86
2024/04/01 02:11:50;;;;;;;33.47;29.03;;;7.50;93.50;;;;;;5035376;28;20173;-84
2024/04/01 02:14:15;;;;;;;39.73;31.73;;;7.50;93.50;;;;;;5036612;28;20199;-84
2024/04/01 02:16:41;;;;;;;36.20;29.70;;;7.50;93.50;;;;;;5036295;28;20173;-85
2024/04/01 02:19:07;;;;;;;38.07;27.80;;;7.50;93.40;;;;;;5036358;28;20189;-84
2024/04/01 02:21:32;;;;;;;36.00;28.50;;;7.50;93.30;;;;;;5036265;28;20183;-84
2024/04/01 02:23:58;;;;;;;36.13;29.10;;;7.50;93.20;;;;;;5035895;28;20287;-85
2024/04/01 02:26:24;;;;;;;32.67;27.53;;;7.50;93.20;;;;;;5036100;28;20652;-84
2024/04/01 02:28:49;;;;;;;31.53;27.60;;;7.60;93.20;;;;;;5036312;28;20196;-84
2024/04/01 02:31:15;;;;;;;31.13;26.70;;;7.70;93.20;;;;;;5036175;28;20614;-84
2024/04/01 02:33:40;;;;;;;33.00;28.13;;;7.70;93.10;;;;;;5034561;28;20196;-84
2024/04/01 02:36:06;;;;;;;37.00;29.23;;;7.70;93.10;;;;;;5035872;28;20177;-84
2024/04/01 02:38:32;;;;;;;56.27;38.77;;;7.70;93.00;;;;;;5034399;28;20299;-84
2024/04/01 02:40:57;;;;;;;65.40;41.63;;;7.70;93.00;;;;;;5035516;28;20168;-84
2024/04/01 02:43:22;;;;;;;39.93;31.50;;;7.70;92.90;;;;;;5034493;28;20204;-84
2024/04/01 02:45:48;;;;;;;34.20;29.47;;;7.70;92.90;;;;;;5035650;28;20691;-84
2024/04/01 02:48:14;;;;;;;31.60;28.17;;;7.70;92.90;;;;;;5035681;28;20222;-84
2024/04/01 02:50:39;;;;;;;36.57;29.80;;;7.70;92.90;;;;;;5035495;28;20184;-83
2024/04/01 02:53:05;;;;;;;33.30;29.07;;;7.70;92.90;;;;;;5035570;28;20193;-84
2024/04/01 02:55:30;;;;;;;33.57;28.37;;;7.70;92.90;;;;;;5034095;28;20184;-84
2024/04/01 02:57:56;;;;;;;33.63;28.07;;;7.80;93.00;;;;;;5036089;28;20192;-84
2024/04/01 03:00:22;;;;;;;33.60;27.40;;;7.80;93.00;;;;;;5035474;28;20182;-85
2024/04/01 03:02:48;;;;;;;32.77;29.10;;;7.70;92.90;;;;;;5034146;28;20196;-85
2024/04/01 03:05:15;;;;;;;37.17;30.40;;;7.70;93.00;;;;;;5034374;28;20169;-84
2024/04/01 03:07:42;;;;;;;41.27;32.43;;;7.70;93.00;;;;;;5035520;28;20165;-84
2024/04/01 03:10:11;;;;;;;33.77;28.80;;;7.70;92.90;;;;;;5033216;28;20211;-84
2024/04/01 03:12:37;;;;;;;31.07;27.80;;;7.70;92.70;;;;;;5035371;28;20698;-84
2024/04/01 03:15:04;;;;;;;35.73;26.93;;;7.70;92.60;;;;;;5034039;28;20267;-84
2024/04/01 03:17:31;;;;;;;32.73;27.50;;;7.70;92.50;;;;;;5034459;28;20180;-84
2024/04/01 03:19:57;;;;;;;35.60;26.80;;;7.70;92.50;;;;;;5035581;28;20673;-84
2024/04/01 03:22:24;;;;;;;36.33;28.43;;;7.70;92.60;;;;;;5034056;28;20201;-84
2024/04/01 03:24:50;;;;;;;37.67;28.40;;;7.60;92.60;;;;;;5034083;28;20181;-85
2024/04/01 03:27:15;;;;;;;33.37;28.67;;;7.70;92.70;;;;;;5035709;28;20173;-86
2024/04/01 03:29:41;;;;;;;36.83;29.47;;;7.70;92.70;;;;;;5035391;28;20192;-84
2024/04/01 03:32:06;;;;;;;33.33;29.13;;;7.70;92.70;;;;;;5034209;28;20187;-85
2024/04/01 03:34:32;;;;;;;35.70;28.57;;;7.70;92.70;;;;;;5034845;28;20335;-84
2024/04/01 03:36:59;;;;;;;32.80;28.67;;;7.70;92.70;;;;;;5035585;28;20596;-84
2024/04/01 03:39:25;;;;;;;34.90;28.83;;;7.70;92.70;;;;;;5034616;28;20227;-84
2024/04/01 03:41:50;;;;;;;37.67;30.80;;;7.80;92.70;;;;;;5036178;28;20656;-85
2024/04/01 03:44:16;;;;;;;35.13;28.83;;;7.70;92.70;;;;;;5035256;28;20185;-85
2024/04/01 03:46:43;;;;;;;32.30;27.73;;;7.70;92.60;;;;;;5035734;28;20185;-84
2024/04/01 03:49:09;;;;;;;32.77;25.07;;;7.70;92.50;;;;;;5036161;28;20268;-84
2024/04/01 03:51:34;;;;;;;36.43;25.93;;;7.60;92.50;;;;;;5035606;28;20617;-84
2024/04/01 03:54:00;;;;;;;32.80;25.33;;;7.60;92.60;;;;;;5034207;28;20200;-84
2024/04/01 03:56:25;;;;;;;39.50;25.20;;;7.70;92.60;;;;;;5033814;28;20180;-86
2024/04/01 03:58:51;;;;;;;28.37;24.13;;;7.70;92.60;;;;;;5032891;28;20274;-84
2024/04/01 04:01:17;;;;;;;29.67;25.00;;;7.70;92.60;;;;;;5032957;28;20177;-84
2024/04/01 04:03:42;;;;;;;34.67;24.43;;;7.70;92.60;;;;;;5034004;28;20197;-83
2024/04/01 04:06:11;;;;;;;32.17;24.87;;;7.70;92.70;;;;;;5034649;28;20173;-84
2024/04/01 04:08:40;;;;;;;31.73;24.90;;;7.70;92.70;;;;;;5032798;28;20176;-84
2024/04/01 04:11:10;;;;;;;29.33;24.70;;;7.70;92.70;;;;;;5032812;28;20180;-84
2024/04/01 04:13:36;;;;;;;33.30;24.93;;;7.70;92.70;;;;;;5032612;28;20205;-83
2024/04/01 04:16:02;;;;;;;31.70;23.57;;;7.70;92.50;;;;;;5032755;28;20299;-87
2024/04/01 04:18:28;;;;;;;32.57;24.33;;;7.60;92.50;;;;;;5034374;28;20204;-84
2024/04/01 04:20:56;;;;;;;33.83;24.53;;;7.50;92.50;;;;;;5034126;28;20169;-84
2024/04/01 04:23:26;;;;;;;34.23;25.63;;;7.50;92.60;;;;;;5039006;28;20262;-84
2024/04/01 04:25:52;;;;;;;31.73;24.97;;;7.50;92.60;;;;;;5040746;28;20170;-84
2024/04/01 04:28:18;;;;;;;34.13;25.13;;;7.50;92.50;;;;;;5039238;28;20173;-84
2024/04/01 04:30:43;;;;;;;34.17;25.20;;;7.50;92.50;;;;;;5041291;28;20173;-85
2024/04/01 04:33:09;;;;;;;29.50;23.43;;;7.50;92.50;;;;;;5041230;28;20250;-84
2024/04/01 04:35:35;;;;;;;35.97;23.60;;;7.40;92.40;;;;;;5039653;28;20184;-84
2024/04/01 04:38:00;;;;;;;36.13;25.07;;;7.40;92.50;;;;;;5039380;28;20230;-84
2024/04/01 04:40:29;;;;;;;38.50;24.00;;;7.40;92.50;;;;;;5040972;28;20172;-83
2024/04/01 04:42:55;;;;;;;40.97;24.97;;;7.30;92.40;;;;;;5041073;28;20195;-86
2024/04/01 04:45:24;;;;;;;41.03;24.90;;;7.30;92.40;;;;;;5040685;28;20172;-85
2024/04/01 04:47:50;;;;;;;35.13;25.13;;;7.30;92.40;;;;;;5039503;28;20559;-85
2024/04/01 04:50:16;;;;;;;36.53;26.43;;;7.30;92.50;;;;;;5040827;28;20181;-84
2024/04/01 04:52:41;;;;;;;37.67;26.57;;;7.30;92.40;;;;;;5040903;28;20633;-85
2024/04/01 04:55:07;;;;;;;34.37;25.77;;;7.30;92.50;;;;;;5041234;28;20177;-84
2024/04/01 04:57:33;;;;;;;37.50;25.77;;;7.30;92.60;;;;;;5040848;28;20181;-84
2024/04/01 04:59:58;;;;;;;40.33;26.53;;;7.30;92.60;;;;;;5041063;28;20258;-84
2024/04/01 05:02:24;;;;;;;36.37;27.70;;;7.30;92.70;;;;;;5039910;28;20641;-85
2024/04/01 05:04:49;;;;;;;38.03;26.53;;;7.30;92.70;;;;;;5041498;28;20181;-84
2024/04/01 05:07:15;;;;;;;36.20;26.73;;;7.40;92.80;;;;;;5040915;28;20196;-84
2024/04/01 05:09:41;;;;;;;35.07;25.97;;;7.40;92.70;;;;;;5041197;28;20611;-84
2024/04/01 05:12:06;;;;;;;35.40;25.33;;;7.30;92.60;;;;;;5039909;28;20184;-84
2024/04/01 05:14:32;;;;;;;42.43;26.53;;;7.30;92.60;;;;;;5039344;28;20258;-85
2024/04/01 05:16:58;;;;;;;32.23;24.37;;;7.30;92.60;;;;;;5039698;28;20184;-85
2024/04/01 05:19:23;;;;;;;40.27;25.17;;;7.30;92.60;;;;;;5041193;28;20201;-85
2024/04/01 05:21:49;;;;;;;34.40;25.33;;;7.30;92.60;;;;;;5039407;28;20560;-85
2024/04/01 05:24:15;;;;;;;37.33;25.37;;;7.20;92.60;;;;;;5040723;28;20208;-85
2024/04/01 05:26:41;;;;;;;35.90;26.37;;;7.20;92.70;;;;;;5040979;28;20740;-85
2024/04/01 05:29:07;;;;;;;35.83;26.07;;;7.20;92.70;;;;;;5040819;28;20201;-87
2024/04/01 05:31:33;;;;;;;32.53;25.93;;;7.20;92.70;;;;;;5039932;28;20180;-84
2024/04/01 05:33:59;;;;;;;40.30;26.93;;;7.30;92.80;;;;;;5038230;28;20223;-82
2024/04/01 05:36:27;;;;;;;37.03;26.30;;;7.30;92.80;;;;;;5036769;28;20589;-86
2024/04/01 05:38:53;;;;;;;37.53;27.30;;;7.30;92.80;;;;;;5036023;28;20200;-83
2024/04/01 05:41:19;;;;;;;42.43;27.20;;;7.30;92.80;;;;;;5035633;28;20184;-85
2024/04/01 05:43:45;;;;;;;36.17;27.17;;;7.30;92.80;;;;;;5035884;28;20203;-85
2024/04/01 05:46:10;;;;;;;40.40;30.00;;;7.30;92.80;;;;;;5037490;28;20169;-85
2024/04/01 05:48:36;;;;;;;38.60;28.67;;;7.40;92.90;;;;;;5037747;28;20177;-84
2024/04/01 05:51:02;;;;;;;42.83;28.90;;;7.50;92.90;;;;;;5036279;28;20180;-86
2024/04/01 05:53:27;;;;;;;42.50;29.93;;;7.50;92.90;;;;;;5037810;28;20216;-84
2024/04/01 05:55:53;;;;;;;44.23;30.97;;;7.60;93.00;;;;;;5035641;28;20208;-84
2024/04/01 05:58:18;;;;;;;44.40;29.90;;;7.60;93.00;;;;;;5035175;28;20208;-84
2024/04/01 06:00:44;;;;;;;46.33;32.50;;;7.70;93.10;;;;;;5035394;28;20180;-84
2024/04/01 06:03:10;;;;;;;49.53;32.30;;;7.70;93.10;;;;;;5036664;28;20193;-87
2024/04/01 06:05:35;;;;;;;46.30;33.20;;;7.70;93.10;;;;;;5035927;28;20169;-84
2024/04/01 06:08:01;;;;;;;47.80;34.53;;;7.80;93.20;;;;;;5036979;28;20642;-84
2024/04/01 06:10:27;;;;;;;49.97;35.73;;;7.80;93.20;;;;;;5037285;28;20584;-84
2024/04/01 06:12:54;;;;;;;54.87;35.33;;;7.80;93.30;;;;;;5037351;28;20188;-84
2024/04/01 06:15:20;;;;;;;49.47;35.70;;;7.90;93.40;;;;;;5036324;28;20242;-84
2024/04/01 06:17:45;;;;;;;51.47;35.70;;;7.90;93.40;;;;;;5037773;28;20248;-84
2024/04/01 06:20:11;;;;;;;55.47;36.20;;;7.90;93.40;;;;;;5035754;28;20287;-84
2024/04/01 06:22:37;;;;;;;52.47;36.60;;;7.90;93.40;;;;;;5037166;28;20288;-84
2024/04/01 06:25:04;;;;;;;53.07;36.97;;;7.90;93.40;;;;;;5036501;28;20184;-84
2024/04/01 06:27:30;;;;;;;55.87;36.63;;;8.00;93.40;;;;;;5035619;28;20230;-84
2024/04/01 06:29:55;;;;;;;43.50;35.17;;;8.00;93.40;;;;;;5036016;28;20184;-84
2024/04/01 06:32:21;;;;;;;54.67;36.70;;;8.00;93.50;;;;;;5035724;28;20645;-84
2024/04/01 06:34:47;;;;;;;52.17;37.07;;;8.00;93.50;;;;;;5034893;28;20183;-84
2024/04/01 06:37:12;;;;;;;55.10;36.63;;;8.00;93.60;;;;;;5036383;28;20188;-84
2024/04/01 06:39:38;;;;;;;63.30;39.63;;;8.00;93.60;;;;;;5034966;28;20680;-86
2024/04/01 06:42:04;;;;;;;61.50;40.20;;;8.10;93.70;;;;;;5035066;28;20542;-86
2024/04/01 06:44:30;;;;;;;59.10;42.17;;;8.20;93.70;;;;;;5036665;28;20210;-84
2024/04/01 06:46:55;;;;;;;62.47;42.83;;;8.20;93.70;;;;;;5034996;28;20181;-85
2024/04/01 06:49:21;;;;;;;62.77;42.97;;;8.20;93.70;;;;;;5035028;28;20264;-85
2024/04/01 06:51:47;;;;;;;60.80;41.83;;;8.20;93.70;;;;;;5034910;28;20180;-84
2024/04/01 06:54:12;;;;;;;69.50;42.00;;;8.30;93.70;;;;;;5036453;28;20263;-84
2024/04/01 06:56:37;;;;;;;59.13;40.17;;;8.30;93.80;;;;;;5037489;28;20177;-84
2024/04/01 06:59:03;;;;;;;58.47;39.30;;;8.40;93.70;;;;;;5034206;28;20201;-84
2024/04/01 07:01:29;;;;;;;55.80;39.47;;;8.40;93.70;;;;;;5034469;28;20192;-84
2024/04/01 07:03:54;;;;;;;57.83;41.27;;;8.40;93.70;;;;;;5034134;28;20391;-85
2024/04/01 07:06:20;;;;;;;54.03;38.87;;;8.40;93.70;;;;;;5034085;28;20180;-84
2024/04/01 07:08:46;;;;;;;51.30;39.03;;;8.50;93.70;;;;;;5034338;28;20184;-84
2024/04/01 07:11:12;;;;;;;60.20;41.97;;;8.50;93.60;;;;;;5032696;28;20177;-84
2024/04/01 07:13:37;;;;;;;59.90;41.20;;;8.50;93.60;;;;;;5033971;28;20192;-84
2024/04/01 07:16:03;;;;;;;66.63;39.93;;;8.50;93.60;;;;;;5033936;28;20255;-84
2024/04/01 07:18:30;;;;;;;53.53;39.93;;;8.50;93.60;;;;;;5032823;28;20219;-84
2024/04/01 07:20:56;;;;;;;51.40;40.70;;;8.60;93.50;;;;;;5033916;28;20220;-85
2024/04/01 07:23:21;;;;;;;63.43;39.80;;;8.60;93.50;;;;;;5032510;28;20208;-84
2024/04/01 07:25:50;;;;;;;55.23;39.80;;;8.60;93.50;;;;;;5032975;28;20196;-85
2024/04/01 07:28:16;;;;;;;59.43;40.63;;;8.60;93.50;;;;;;5033844;28;20198;-84
2024/04/01 07:30:42;;;;;;;60.87;39.17;;;8.60;93.40;;;;;;5032670;28;20173;-84
2024/04/01 07:33:08;;;;;;;61.57;41.63;;;8.60;93.40;;;;;;5033670;28;20185;-85
2024/04/01 07:35:34;;;;;;;60.70;40.17;;;8.60;93.40;;;;;;5033802;28;20261;-84
2024/04/01 07:37:59;;;;;;;60.23;41.80;;;8.60;93.40;;;;;;5033985;28;20521;-84
2024/04/01 07:40:26;;;;;;;56.50;39.47;;;8.60;93.50;;;;;;5033731;28;20688;-86
2024/04/01 07:42:51;;;;;;;62.87;40.20;;;8.60;93.50;;;;;;5032155;28;20277;-85
2024/04/01 07:45:17;;;;;;;60.07;40.83;;;8.60;93.60;;;;;;5033641;28;20714;-84
2024/04/01 07:47:42;;;;;;;57.43;39.10;;;8.60;93.70;;;;;;5034365;28;20247;-83
2024/04/01 07:50:08;;;;;;;63.93;41.50;;;8.60;93.70;;;;;;5034341;28;20175;-83
2024/04/01 07:52:35;;;;;;;58.47;43.17;;;8.70;93.80;;;;;;5033763;28;20549;-83
2024/04/01 07:55:01;;;;;;;63.07;42.77;;;8.70;93.80;;;;;;5033850;28;20180;-84
2024/04/01 07:57:32;;;;;;;57.53;39.93;;;8.70;93.80;;;;;;5032960;28;20177;-83
2024/04/01 07:59:58;;;;;;;68.40;45.57;;;8.80;93.90;;;;;;5034341;28;20638;-83
2024/04/01 08:02:24;;;;;;;59.13;41.53;;;8.80;93.90;;;;;;5033465;28;20175;-84
2024/04/01 08:04:50;;;;;;;55.43;39.90;;;8.80;93.80;;;;;;5033349;28;20168;-84
2024/04/01 08:07:15;;;;;;;59.17;41.27;;;8.90;93.80;;;;;;5032490;28;20187;-83
2024/04/01 08:09:41;;;;;;;55.97;40.80;;;8.80;93.80;;;;;;5032166;28;20195;-83
2024/04/01 08:12:08;;;;;;;57.23;39.10;;;9.00;93.80;;;;;;5031955;28;20176;-84
2024/04/01 08:14:34;;;;;;;57.23;39.50;;;8.90;93.70;;;;;;5031896;28;20232;-83
2024/04/01 08:16:59;;;;;;;62.83;42.87;;;9.00;93.80;;;;;;5033366;28;20180;-84
2024/04/01 08:19:26;;;;;;;57.70;39.67;;;9.00;93.70;;;;;;5032248;28;20203;-84
2024/04/01 08:21:52;;;;;;;53.57;39.67;;;9.00;93.60;;;;;;5032092;28;20165;-83
2024/04/01 08:24:18;;;;;;;57.33;42.07;;;9.00;93.60;;;;;;5033283;28;20580;-84
2024/04/01 08:26:44;;;;;;;55.93;40.60;;;9.10;93.60;;;;;;5033313;28;20169;-84
2024/04/01 08:29:09;;;;;;;59.93;40.40;;;9.10;93.50;;;;;;5033361;28;20656;-83
2024/04/01 08:31:35;;;;;;;56.00;38.33;;;9.10;93.50;;;;;;5031992;28;20227;-83
2024/04/01 08:34:00;;;;;;;53.37;40.27;;;9.00;93.40;;;;;;5032138;28;20202;-84
2024/04/01 08:36:26;;;;;;;54.90;41.40;;;9.00;93.50;;;;;;5032157;28;20177;-84
2024/04/01 08:38:51;;;;;;;66.47;42.13;;;9.00;93.50;;;;;;5033585;28;20544;-84
2024/04/01 08:41:51;;;;;;;64.23;43.63;;;9.00;93.60;;;;;;5032195;28;20172;-83
2024/04/01 08:44:17;;;;;;;64.10;43.93;;;9.20;93.70;;;;;;5011558;28;20295;-83
2024/04/01 08:46:45;;;;;;;63.50;46.37;;;9.20;93.80;;;;;;5032705;28;20204;-83
2024/04/01 08:49:12;;;;;;;63.50;44.07;;;9.30;93.80;;;;;;5033142;28;20218;-83
2024/04/01 08:51:38;;;;;;;63.50;45.67;;;9.20;93.90;;;;;;5033842;28;20176;-83
2024/04/01 08:54:06;;;;;;;65.33;47.37;;;9.20;93.90;;;;;;5032958;28;20551;-82
2024/04/01 08:56:32;;;;;;;60.17;46.83;;;9.20;93.90;;;;;;5035977;28;20165;-83
2024/04/01 08:58:58;;;;;;;65.17;48.27;;;9.10;93.90;;;;;;5036277;28;20204;-84
2024/04/01 09:01:25;;;;;;;67.10;48.80;;;9.00;93.90;;;;;;5035136;28;20637;-85
2024/04/01 09:03:51;;;;;;;69.20;47.00;;;9.10;94.00;;;;;;5031802;28;20193;-85
2024/04/01 09:06:18;;;;;;;65.77;46.30;;;9.00;94.00;;;;;;5035270;28;20195;-82
2024/04/01 09:08:45;;;;;;;69.53;47.60;;;9.00;94.10;;;;;;5037872;28;20552;-82
2024/04/01 09:11:11;;;;;;;65.33;45.40;;;9.10;94.10;;;;;;5042310;28;20173;-82
2024/04/01 09:13:37;;;;;;;63.83;46.77;;;9.20;94.20;;;;;;5040889;28;20204;-84
2024/04/01 09:16:03;;;;;;;71.37;48.17;;;9.30;94.30;;;;;;5039904;28;20196;-83
2024/04/01 09:18:36;;;;;;;69.10;48.17;;;9.20;94.20;;;;;;5038855;28;20199;-82
2024/04/01 09:21:02;;;;;;;86.73;56.87;;;9.30;94.10;;;;;;5037981;28;20157;-83
2024/04/01 09:23:30;;;;;;;81.07;54.47;;;9.20;94.20;;;;;;5039777;28;20285;-83
2024/04/01 09:26:01;;;;;;;67.87;48.67;;;9.30;94.20;;;;;;5039703;28;20188;-80
2024/04/01 09:28:26;;;;;;;73.57;50.30;;;9.20;94.20;;;;;;5036089;28;20165;-80
2024/04/01 09:30:53;;;;;;;73.53;49.17;;;9.20;94.20;;;;;;5036104;28;20172;-82
2024/04/01 09:33:19;;;;;;;63.07;47.50;;;9.20;94.30;;;;;;5036055;28;20200;-82
2024/04/01 09:35:45;;;;;;;67.10;47.20;;;9.20;94.40;;;;;;5039982;28;20172;-82
2024/04/01 09:38:11;;;;;;;68.07;48.73;;;9.20;94.50;;;;;;5038632;28;20184;-82
2024/04/01 09:40:36;;;;;;;66.07;49.10;;;9.20;94.60;;;;;;5040438;28;20169;-82
2024/04/01 09:43:02;;;;;;;70.37;48.70;;;9.30;94.70;;;;;;5038428;28;20193;-82
2024/04/01 09:45:29;;;;;;;70.23;51.50;;;9.30;94.70;;;;;;5039416;28;20196;-82
2024/04/01 09:47:56;;;;;;;70.00;47.23;;;9.30;94.80;;;;;;5040374;28;20518;-82
2024/04/01 09:50:21;;;;;;;64.33;48.07;;;9.30;94.90;;;;;;5037887;28;20176;-84
2024/04/01 09:52:47;;;;;;;62.13;45.77;;;9.20;94.90;;;;;;5038825;28;20200;-82
2024/04/01 09:55:20;;;;;;;69.53;48.80;;;9.20;94.90;;;;;;5039995;28;20173;-82
2024/04/01 09:58:16;;;;;;;65.43;46.43;;;9.20;94.90;;;;;;5040084;28;20169;-82
2024/04/01 10:00:58;;;;;;;72.90;51.63;;;9.20;95.00;;;;;;5035762;28;20629;-82
2024/04/01 10:04:08;;;;;;;72.83;49.90;;;9.20;95.10;;;;;;5036062;28;20254;-83
2024/04/01 10:07:15;;;;;;;81.77;53.90;;;9.20;95.00;;;;;;5035892;28;20180;-84
2024/04/01 10:10:07;;;;;;;79.27;52.83;;;9.10;95.00;;;;;;5036296;28;20228;-83
2024/04/01 10:13:23;;;;;;;80.03;55.57;;;9.20;95.10;;;;;;5036542;28;20197;-82
2024/04/01 10:16:07;;;;;;;76.73;53.83;;;9.10;95.20;;;;;;5038114;28;20641;-83
2024/04/01 10:19:02;;;;;;;67.77;50.57;;;9.30;95.30;;;;;;5034967;28;20254;-84
2024/04/01 10:21:40;;;;;;;66.60;47.50;;;9.40;95.30;;;;;;5034772;28;20161;-83
2024/04/01 10:24:38;;;;;;;63.90;48.00;;;9.50;95.30;;;;;;5035126;28;20560;-83
2024/04/01 10:27:22;;;;;;;61.30;44.87;;;9.60;95.30;;;;;;5035811;28;20211;-84
2024/04/01 10:30:26;;;;;;;65.77;45.53;;;9.60;95.20;;;;;;5036188;28;20621;-83
2024/04/01 10:33:25;;;;;;;68.03;48.53;;;9.60;95.30;;;;;;5034253;28;20203;-83
2024/04/01 10:36:10;;;;;;;65.67;46.73;;;9.50;95.20;;;;;;5035165;28;20162;-84
2024/04/01 10:39:14;;;;;;;62.73;46.63;;;9.70;95.30;;;;;;5033923;28;20292;-85
2024/04/01 10:41:58;;;;;;;57.97;42.67;;;9.70;95.30;;;;;;5035263;28;20160;-84
2024/04/01 10:44:45;;;;;;;57.33;41.77;;;9.70;95.30;;;;;;5035795;28;20194;-84
2024/04/01 10:47:34;;;;;;;51.60;39.90;;;9.70;95.30;;;;;;5034424;28;20318;-83
2024/04/01 10:50:29;;;;;;;49.17;38.40;;;9.80;95.40;;;;;;5035530;28;20188;-84
2024/04/01 10:53:34;;;;;;;51.80;38.60;;;9.90;95.30;;;;;;5040234;28;20201;-83
2024/04/01 10:56:36;;;;;;;50.63;39.83;;;9.90;95.20;;;;;;5023521;28;20199;-83
2024/04/01 10:59:26;;;;;;;53.30;40.43;;;10.00;95.10;;;;;;5036979;28;20203;-83
2024/04/01 11:02:26;;;;;;;47.77;37.87;;;10.00;95.00;;;;;;5037119;28;20171;-83
2024/04/01 11:05:11;;;;;;;53.57;39.03;;;10.00;95.00;;;;;;5037325;28;20207;-84
2024/04/01 11:08:20;;;;;;;49.50;39.60;;;9.90;94.70;;;;;;5038838;28;20224;-86
2024/04/01 11:10:52;;;;;;;45.27;37.87;;;9.90;94.60;;;;;;5036153;28;20230;-86
2024/04/01 11:13:22;;;;;;;47.57;37.97;;;9.80;94.50;;;;;;5034765;28;20540;-84
2024/04/01 11:15:54;;;;;;;48.67;37.97;;;9.90;94.60;;;;;;5037130;28;20584;-85
2024/04/01 11:18:37;;;;;;;45.80;36.50;;;10.00;94.70;;;;;;5040486;28;20173;-82
2024/04/01 11:21:05;;;;;;;48.23;36.43;;;10.10;94.80;;;;;;5039585;28;20168;-82
2024/04/01 11:24:15;;;;;;;44.97;33.73;;;10.10;94.70;;;;;;5037545;28;20204;-84
2024/04/01 11:27:00;;;;;;;50.43;37.87;;;10.20;94.80;;;;;;5034543;28;20290;-85
2024/04/01 11:29:48;;;;;;;49.20;36.73;;;10.10;94.60;;;;;;5034735;28;20172;-84
2024/04/01 11:32:17;;;;;;;45.67;36.17;;;10.20;94.60;;;;;;5034380;28;20177;-87
2024/04/01 11:34:54;;;;;;;44.10;35.20;;;10.30;94.60;;;;;;5036509;28;20172;-83
2024/04/01 11:37:28;;;;;;;48.37;38.07;;;10.20;94.50;;;;;;5037212;28;20169;-82
2024/04/01 11:39:59;;;;;;;47.23;36.97;;;10.30;94.40;;;;;;5038429;28;20275;-83
2024/04/01 11:42:28;;;;;;;48.00;37.10;;;10.40;94.40;;;;;;5036748;28;20244;-83
2024/04/01 11:44:56;;;;;;;40.33;32.87;;;10.50;94.40;;;;;;5036650;28;20592;-83
2024/04/01 11:47:24;;;;;;;40.27;32.13;;;10.60;94.30;;;;;;5036528;28;20208;-84
2024/04/01 11:49:50;;;;;;;38.00;30.33;;;10.50;94.20;;;;;;5038562;28;20581;-83
2024/04/01 11:52:17;;;;;;;34.93;28.90;;;10.60;94.30;;;;;;5036704;28;20188;-83
2024/04/01 11:54:43;;;;;;;40.57;32.33;;;10.70;94.20;;;;;;5036571;28;20176;-85
2024/04/01 11:57:10;;;;;;;43.67;34.70;;;10.70;94.10;;;;;;5036535;28;20196;-84
2024/04/01 11:59:36;;;;;;;37.30;31.97;;;10.70;94.10;;;;;;5037991;28;20203;-84
2024/04/01 12:02:12;;;;;;;35.33;31.47;;;10.80;94.20;;;;;;5038977;28;20201;-83
2024/04/01 12:04:37;;;;;;;37.37;33.27;;;11.00;94.20;;;;;;5035774;28;20244;-83
2024/04/01 12:07:04;;;;;;;39.93;29.53;;;10.90;94.10;;;;;;5036494;28;20664;-83
2024/04/01 12:09:32;;;;;;;37.03;28.57;;;11.00;94.20;;;;;;5034330;28;20180;-86
2024/04/01 12:11:59;;;;;;;32.87;29.13;;;11.00;94.00;;;;;;5036521;28;20177;-85
2024/04/01 12:14:27;;;;;;;35.13;31.03;;;10.90;93.80;;;;;;5035849;28;20203;-84
2024/04/01 12:16:52;;;;;;;41.83;33.07;;;10.80;93.80;;;;;;5034566;28;20668;-85
2024/04/01 12:19:18;;;;;;;44.70;36.37;;;10.80;93.90;;;;;;5034336;28;20200;-83
2024/04/01 12:21:45;;;;;;;45.13;35.67;;;10.80;93.90;;;;;;5034887;28;20207;-86
2024/04/01 12:24:15;;;;;;;40.70;36.20;;;11.00;93.90;;;;;;5033943;28;20275;-86
2024/04/01 12:26:42;;;;;;;43.47;37.47;;;11.00;93.90;;;;;;5034674;28;20189;-86
2024/04/01 12:29:15;;;;;;;46.83;38.10;;;11.00;93.70;;;;;;5037022;28;20176;-84
2024/04/01 12:31:47;;;;;;;43.07;36.30;;;11.10;93.80;;;;;;5036765;28;20161;-83
2024/04/01 12:34:14;;;;;;;41.40;36.70;;;11.00;93.80;;;;;;5033798;28;20188;-84
2024/04/01 12:36:41;;;;;;;38.47;34.33;;;11.00;93.70;;;;;;5035012;28;20172;-84
2024/04/01 12:39:09;;;;;;;38.10;34.10;;;11.10;93.90;;;;;;5035206;28;20211;-84
2024/04/01 12:41:37;;;;;;;42.00;33.37;;;10.70;93.10;;;;;;5034439;28;20649;-84
2024/04/01 12:44:06;;;;;;;44.27;35.10;;;10.60;93.50;;;;;;5039591;28;20231;-84